Time;durP1;ratioP1;P1;durP2;ratioP2;P2;SDS_P1;SDS_P2;PMS_P1;PMS_P2;Temp;Humidity;BMP_temperature;BMP_pressure;BME280_temperature;BME280_humidity;BME280_pressure;Samples;Min_cycle;Max_cycle;Signal;HPM_P1;HPM_P2
2021/12/09 00:02:43;;;;;;;17.10;6.30;;;2.10;99.90;;;;;;6284148;22;20030;-82
2021/12/09 00:05:28;;;;;;;16.17;6.40;;;2.10;99.90;;;;;;6305040;22;20018;-82
2021/12/09 00:08:13;;;;;;;15.13;6.00;;;2.10;99.90;;;;;;6306651;22;20014;-82
2021/12/09 00:11:00;;;;;;;13.70;6.47;;;2.10;99.90;;;;;;6306762;22;20348;-82
2021/12/09 00:13:44;;;;;;;13.23;6.10;;;2.50;99.90;;;;;;6306902;22;20089;-82
2021/12/09 00:16:29;;;;;;;14.00;6.13;;;2.10;99.90;;;;;;6282984;22;20094;-82
2021/12/09 00:19:14;;;;;;;10.27;6.33;;;2.10;99.90;;;;;;6305387;22;20384;-83
2021/12/09 00:21:59;;;;;;;15.67;6.60;;;2.10;99.90;;;;;;6283624;22;20021;-82
2021/12/09 00:24:43;;;;;;;15.73;6.17;;;2.10;99.90;;;;;;6306515;22;20017;-82
2021/12/09 00:27:27;;;;;;;;;;;2.10;99.90;;;;;;6306615;22;20072;-82
2021/12/09 00:30:12;;;;;;;10.40;5.65;;;2.20;99.90;;;;;;6305504;22;19999;-83
2021/12/09 00:32:58;;;;;;;15.13;6.40;;;2.10;99.90;;;;;;6305506;22;20100;-82
2021/12/09 00:35:57;;;;;;;15.83;6.97;;;2.70;99.90;;;;;;6304895;22;20022;-82
2021/12/09 00:38:42;;;;;;;13.30;6.50;;;2.10;99.90;;;;;;6306155;22;20561;-82
2021/12/09 00:41:26;;;;;;;15.80;7.30;;;2.10;99.90;;;;;;6304595;22;20075;-83
2021/12/09 00:44:10;;;;;;;13.27;6.50;;;2.10;99.90;;;;;;6306583;22;20018;-83
2021/12/09 00:46:55;;;;;;;13.70;7.00;;;2.40;99.90;;;;;;6305336;22;20397;-82
2021/12/09 00:49:38;;;;;;;;;;;2.30;99.90;;;;;;6305319;22;20069;-82
2021/12/09 00:52:24;;;;;;;15.25;6.28;;;2.20;99.90;;;;;;6306265;22;19910;-84
2021/12/09 00:55:10;;;;;;;12.13;6.60;;;2.00;99.90;;;;;;6304630;22;20030;-82
2021/12/09 00:57:54;;;;;;;11.40;6.83;;;2.00;99.90;;;;;;6308571;22;20530;-82
2021/12/09 01:00:38;;;;;;;;;;;2.00;99.90;;;;;;6308321;22;20019;-82
2021/12/09 01:03:23;;;;;;;13.95;8.23;;;1.90;99.90;;;;;;6307310;22;19918;-82
2021/12/09 01:06:08;;;;;;;15.43;6.27;;;1.90;99.90;;;;;;6306989;22;20064;-83
2021/12/09 01:08:52;;;;;;;12.93;7.00;;;1.90;99.90;;;;;;6308493;22;20018;-82
2021/12/09 01:11:36;;;;;;;;;;;1.90;99.90;;;;;;6308390;22;20030;-82
2021/12/09 01:14:21;;;;;;;13.85;7.70;;;1.90;99.90;;;;;;6285193;22;19998;-83
2021/12/09 01:17:08;;;;;;;17.53;7.67;;;1.90;99.90;;;;;;6306874;22;20018;-82
2021/12/09 01:19:53;;;;;;;15.97;7.77;;;1.80;99.90;;;;;;6307998;22;20014;-82
2021/12/09 01:22:42;;;;;;;12.33;6.77;;;1.80;99.90;;;;;;6306522;22;20108;-82
2021/12/09 01:25:31;;;;;;;13.87;7.63;;;1.80;99.90;;;;;;6306820;22;20016;-82
2021/12/09 01:28:24;;;;;;;16.63;7.90;;;2.30;99.90;;;;;;6307003;22;20014;-82
2021/12/09 01:31:09;;;;;;;24.00;9.63;;;1.80;99.90;;;;;;6308266;22;20018;-82
2021/12/09 01:33:59;;;;;;;12.57;7.20;;;1.80;99.90;;;;;;6306545;22;20014;-82
2021/12/09 01:36:44;;;;;;;14.57;7.57;;;1.80;99.90;;;;;;6285784;22;20344;-82
2021/12/09 01:39:30;;;;;;;17.03;7.53;;;1.80;99.90;;;;;;6306760;22;20014;-82
2021/12/09 01:42:17;;;;;;;14.00;7.47;;;1.60;99.90;;;;;;6306908;22;20021;-83
2021/12/09 01:45:03;;;;;;;14.83;7.17;;;1.80;99.90;;;;;;6306729;22;20058;-82
2021/12/09 01:47:47;;;;;;;12.70;7.53;;;1.80;99.90;;;;;;6306234;22;20022;-82
2021/12/09 01:50:34;;;;;;;15.37;7.33;;;1.70;99.90;;;;;;6306546;22;20102;-84
2021/12/09 01:53:19;;;;;;;12.77;7.23;;;1.70;99.90;;;;;;6307973;22;20076;-82
2021/12/09 01:56:06;;;;;;;;;;;2.50;99.90;;;;;;6306490;22;20102;-82
2021/12/09 01:58:53;;;;;;;15.73;9.20;;;1.70;99.90;;;;;;6307321;22;19909;-82
2021/12/09 02:01:38;;;;;;;18.50;7.57;;;1.80;99.90;;;;;;6306009;22;20081;-82
2021/12/09 02:04:22;;;;;;;14.27;7.87;;;2.20;99.90;;;;;;6306553;22;20088;-82
2021/12/09 02:07:07;;;;;;;15.13;8.20;;;1.70;99.90;;;;;;6307526;22;20065;-82
2021/12/09 02:09:51;;;;;;;15.33;7.60;;;1.70;99.90;;;;;;6262519;22;20017;-82
2021/12/09 02:12:36;;;;;;;16.17;7.70;;;1.60;99.90;;;;;;6284323;22;20064;-85
2021/12/09 02:15:22;;;;;;;13.27;7.83;;;1.60;99.90;;;;;;6307600;22;20034;-82
2021/12/09 02:18:08;;;;;;;12.10;8.30;;;2.10;99.90;;;;;;6306425;22;20014;-82
2021/12/09 02:21:06;;;;;;;17.97;7.73;;;1.60;99.90;;;;;;6307061;22;20018;-82
2021/12/09 02:23:54;;;;;;;17.10;8.90;;;1.60;99.90;;;;;;6305819;22;20495;-82
2021/12/09 02:26:41;;;;;;;16.17;7.93;;;1.60;99.90;;;;;;6307421;22;20026;-85
2021/12/09 02:29:25;;;;;;;15.60;8.07;;;1.60;99.90;;;;;;6306442;22;20053;-82
2021/12/09 02:32:09;;;;;;;;;;;1.80;99.90;;;;;;6307920;22;20018;-82
2021/12/09 02:34:53;;;;;;;16.67;7.63;;;1.60;99.90;;;;;;6307010;22;19914;-82
2021/12/09 02:37:38;;;;;;;21.93;8.20;;;1.50;99.90;;;;;;6284404;22;20018;-82
2021/12/09 02:40:22;;;;;;;;;;;1.60;99.90;;;;;;6307748;22;20076;-82
2021/12/09 02:43:08;;;;;;;13.90;7.60;;;1.50;99.90;;;;;;6307321;22;19969;-82
2021/12/09 02:45:53;;;;;;;13.73;7.87;;;1.50;99.90;;;;;;6306888;22;20014;-82
2021/12/09 02:48:37;;;;;;;16.27;8.93;;;1.50;99.90;;;;;;6307300;22;20061;-82
2021/12/09 02:51:21;;;;;;;16.03;7.73;;;1.50;99.90;;;;;;6305924;22;20061;-82
2021/12/09 02:54:08;;;;;;;16.00;8.63;;;1.50;99.90;;;;;;6306678;22;20013;-82
2021/12/09 02:56:56;;;;;;;17.73;9.40;;;1.50;99.90;;;;;;6305295;22;20022;-82
2021/12/09 02:59:40;;;;;;;15.27;8.33;;;1.50;99.90;;;;;;6306147;22;20491;-82
2021/12/09 03:02:25;;;;;;;15.33;9.43;;;1.50;99.90;;;;;;6307257;22;20021;-82
2021/12/09 03:05:09;;;;;;;22.33;9.40;;;1.50;99.90;;;;;;6306970;22;20081;-82
2021/12/09 03:07:54;;;;;;;18.60;8.93;;;1.50;99.90;;;;;;6306604;22;20014;-82
2021/12/09 03:10:38;;;;;;;15.87;8.53;;;1.40;99.90;;;;;;6283948;22;20022;-82
2021/12/09 03:13:22;;;;;;;17.07;8.57;;;1.40;99.90;;;;;;6307212;22;20014;-82
2021/12/09 03:16:07;;;;;;;16.67;9.40;;;1.50;99.90;;;;;;6261959;22;20080;-82
2021/12/09 03:18:59;;;;;;;19.17;8.67;;;1.40;99.90;;;;;;6306337;22;20017;-82
2021/12/09 03:21:45;;;;;;;14.77;8.73;;;1.40;99.90;;;;;;6306920;22;20014;-82
2021/12/09 03:24:30;;;;;;;17.07;9.20;;;1.90;99.90;;;;;;6305964;22;20065;-82
2021/12/09 03:27:15;;;;;;;17.83;9.20;;;1.40;99.90;;;;;;6283844;22;20015;-82
2021/12/09 03:29:59;;;;;;;21.57;9.33;;;1.30;99.90;;;;;;6305226;22;20345;-82
2021/12/09 03:32:43;;;;;;;;;;;2.20;99.90;;;;;;6306161;22;20503;-82
2021/12/09 03:35:28;;;;;;;;;;;1.60;99.90;;;;;;6306426;22;19910;-82
2021/12/09 03:38:13;;;;;;;16.50;8.80;;;1.30;99.90;;;;;;6305164;22;20328;-83
2021/12/09 03:40:57;;;;;;;16.23;8.80;;;1.30;99.90;;;;;;6304906;22;20018;-82
2021/12/09 03:43:41;;;;;;;15.23;8.80;;;1.20;99.90;;;;;;6305704;22;20464;-82
2021/12/09 03:46:25;;;;;;;;;;;1.30;99.90;;;;;;6284044;22;20046;-82
2021/12/09 03:49:10;;;;;;;17.00;9.35;;;1.80;99.90;;;;;;6305850;22;19955;-83
2021/12/09 03:51:56;;;;;;;18.33;9.30;;;1.20;99.90;;;;;;6305015;22;20090;-84
2021/12/09 03:54:42;;;;;;;16.27;9.73;;;1.20;99.90;;;;;;6306730;22;20495;-82
2021/12/09 03:57:26;;;;;;;18.43;9.47;;;1.20;99.90;;;;;;6305314;22;20077;-82
2021/12/09 04:00:12;;;;;;;19.80;9.50;;;1.20;99.90;;;;;;6304930;22;20018;-82
2021/12/09 04:02:57;;;;;;;19.03;9.87;;;1.20;99.90;;;;;;6306193;22;20495;-84
2021/12/09 04:05:41;;;;;;;16.80;10.97;;;1.20;99.90;;;;;;6305610;22;20018;-82
2021/12/09 04:08:25;;;;;;;20.17;9.67;;;1.20;99.90;;;;;;6306772;22;20352;-82
2021/12/09 04:11:10;;;;;;;22.37;9.80;;;1.20;99.90;;;;;;6305046;22;20383;-82
2021/12/09 04:13:54;;;;;;;24.40;10.73;;;1.20;99.90;;;;;;6306871;22;20030;-82
2021/12/09 04:16:39;;;;;;;18.83;9.98;;;1.20;99.90;;;;;;6306808;22;20112;-82
2021/12/09 04:19:24;;;;;;;18.37;10.20;;;1.90;99.90;;;;;;6305420;22;20389;-82
2021/12/09 04:22:08;;;;;;;16.67;10.07;;;1.10;99.90;;;;;;6304826;22;20022;-82
2021/12/09 04:24:52;;;;;;;;;;;1.20;99.90;;;;;;6305722;22;20093;-82
2021/12/09 04:27:36;;;;;;;;;;;1.10;99.90;;;;;;6307175;22;19956;-82
2021/12/09 04:30:23;;;;;;;19.75;10.45;;;2.70;99.90;;;;;;6305639;22;19979;-82
2021/12/09 04:33:08;;;;;;;19.07;11.00;;;1.10;99.90;;;;;;6308159;22;20014;-82
2021/12/09 04:35:52;;;;;;;22.07;9.80;;;1.20;99.90;;;;;;6307591;22;20026;-82
2021/12/09 04:38:37;;;;;;;24.93;10.70;;;1.80;99.90;;;;;;6308607;22;20030;-82
2021/12/09 04:41:22;;;;;;;16.07;9.60;;;1.10;99.90;;;;;;6307990;22;20072;-82
2021/12/09 04:44:07;;;;;;;15.27;10.07;;;1.10;99.90;;;;;;6308048;22;20018;-82
2021/12/09 04:46:51;;;;;;;17.53;10.27;;;1.80;99.90;;;;;;6307263;22;20065;-82
2021/12/09 04:49:36;;;;;;;15.67;9.33;;;1.00;99.90;;;;;;6307189;22;20334;-82
2021/12/09 04:52:20;;;;;;;20.33;10.53;;;1.70;99.90;;;;;;6306904;22;20061;-82
2021/12/09 04:55:07;;;;;;;21.30;11.00;;;1.00;99.90;;;;;;6306469;22;20017;-84
2021/12/09 04:57:53;;;;;;;19.20;10.63;;;1.00;99.90;;;;;;6307377;22;20400;-82
2021/12/09 05:00:38;;;;;;;18.70;9.77;;;1.50;99.90;;;;;;6308433;22;20105;-82
2021/12/09 05:03:23;;;;;;;23.77;11.30;;;1.00;99.90;;;;;;6284958;22;20356;-83
2021/12/09 05:06:07;;;;;;;17.83;10.00;;;1.00;99.90;;;;;;6306718;22;20013;-83
2021/12/09 05:08:51;;;;;;;;;;;1.00;99.90;;;;;;6308937;22;20105;-82
2021/12/09 05:14:21;;;;;;;21.47;10.67;;;1.00;99.90;;;;;;6306554;22;20077;-82
2021/12/09 05:17:05;;;;;;;19.47;11.03;;;1.00;99.90;;;;;;6285141;22;20314;-84
2021/12/09 05:19:50;;;;;;;16.17;9.63;;;1.00;99.90;;;;;;6306972;22;20392;-82
2021/12/09 05:22:34;;;;;;;;;;;1.00;99.90;;;;;;6307806;22;20325;-82
2021/12/09 05:25:18;;;;;;;19.65;10.02;;;0.90;99.90;;;;;;6306424;22;19930;-82
2021/12/09 05:28:04;;;;;;;21.63;10.40;;;0.90;99.90;;;;;;6308273;22;20026;-82
2021/12/09 05:33:52;;;;;;;23.87;12.53;;;0.90;99.90;;;;;;6308061;22;20072;-82
2021/12/09 05:36:36;;;;;;;22.60;11.63;;;0.80;99.90;;;;;;6306705;22;20379;-82
2021/12/09 05:39:21;;;;;;;21.20;11.50;;;0.90;99.90;;;;;;6307528;22;20010;-82
2021/12/09 05:42:07;;;;;;;19.23;10.43;;;0.90;99.90;;;;;;6284470;22;20018;-82
2021/12/09 05:44:53;;;;;;;24.00;11.53;;;0.80;99.90;;;;;;6306755;22;20054;-82
2021/12/09 05:47:37;;;;;;;20.00;10.53;;;0.80;99.90;;;;;;6307770;22;20010;-82
2021/12/09 05:50:21;;;;;;;24.37;11.40;;;0.80;99.90;;;;;;6307385;22;20027;-82
2021/12/09 05:53:07;;;;;;;21.63;9.63;;;1.10;99.90;;;;;;6285056;22;20082;-82
2021/12/09 05:55:50;;;;;;;20.83;10.57;;;0.80;99.90;;;;;;6284205;22;20018;-82
2021/12/09 05:58:35;;;;;;;23.40;11.47;;;1.10;99.90;;;;;;6283820;22;20487;-82
2021/12/09 06:01:20;;;;;;;;;;;0.80;99.90;;;;;;6284515;22;20064;-82
2021/12/09 06:04:05;;;;;;;24.37;10.67;;;0.90;99.90;;;;;;6306670;22;19918;-82
2021/12/09 06:06:51;;;;;;;19.90;11.23;;;0.70;99.90;;;;;;6307820;22;20348;-82
2021/12/09 06:09:36;;;;;;;16.97;10.43;;;0.70;99.90;;;;;;6307257;22;20014;-83
2021/12/09 06:12:20;;;;;;;26.10;10.97;;;0.70;99.90;;;;;;6306056;22;20072;-83
2021/12/09 06:15:06;;;;;;;25.63;11.23;;;1.00;99.90;;;;;;6307850;22;20452;-83
2021/12/09 06:17:50;;;;;;;19.07;10.90;;;0.70;99.90;;;;;;6307930;22;20033;-83
2021/12/09 06:20:34;;;;;;;22.50;11.33;;;0.70;99.90;;;;;;6305829;22;20019;-83
2021/12/09 06:23:18;;;;;;;;;;;0.70;99.90;;;;;;6305439;22;20068;-85
2021/12/09 06:26:06;;;;;;;23.90;11.75;;;0.90;99.90;;;;;;6283429;22;20232;-83
2021/12/09 06:28:50;;;;;;;24.87;10.00;;;0.70;99.90;;;;;;6303556;22;20017;-84
2021/12/09 06:31:35;;;;;;;22.00;11.57;;;1.40;99.90;;;;;;6304307;22;20109;-84
2021/12/09 06:34:19;;;;;;;25.80;11.57;;;0.70;99.90;;;;;;6283798;22;20018;-86
2021/12/09 06:37:03;;;;;;;29.87;12.57;;;0.70;99.90;;;;;;6306463;22;20015;-83
2021/12/09 06:39:48;;;;;;;25.73;11.20;;;0.70;99.90;;;;;;6306062;22;20014;-83
2021/12/09 06:42:32;;;;;;;;;;;1.70;99.90;;;;;;6306131;22;20022;-83
2021/12/09 06:45:17;;;;;;;27.08;10.63;;;0.70;99.90;;;;;;6284069;22;19917;-83
2021/12/09 06:48:02;;;;;;;21.10;10.57;;;1.60;99.90;;;;;;6307119;22;20019;-82
2021/12/09 06:50:46;;;;;;;21.20;10.80;;;0.70;99.90;;;;;;6305458;22;20018;-82
2021/12/09 06:53:32;;;;;;;23.47;11.20;;;0.60;99.90;;;;;;6304658;22;20026;-82
2021/12/09 06:56:16;;;;;;;27.57;12.50;;;0.90;99.90;;;;;;6305570;22;20460;-82
2021/12/09 06:59:01;;;;;;;21.63;11.67;;;1.80;99.90;;;;;;6307045;22;20014;-83
2021/12/09 07:01:45;;;;;;;19.50;10.80;;;0.60;99.90;;;;;;6306401;22;20384;-82
2021/12/09 07:04:29;;;;;;;;;;;0.60;99.90;;;;;;6307134;22;20529;-82
2021/12/09 07:07:13;;;;;;;19.15;10.95;;;0.70;99.90;;;;;;6307024;22;19909;-82
2021/12/09 07:09:58;;;;;;;24.10;11.60;;;0.60;99.90;;;;;;6307025;22;20496;-82
2021/12/09 07:12:43;;;;;;;25.23;12.07;;;1.50;99.90;;;;;;6305142;22;20019;-82
2021/12/09 07:15:27;;;;;;;26.57;12.00;;;0.60;99.90;;;;;;6283332;22;20352;-86
2021/12/09 07:18:11;;;;;;;22.93;11.80;;;0.60;99.90;;;;;;6305875;22;20483;-82
2021/12/09 07:20:56;;;;;;;22.23;11.43;;;0.60;99.90;;;;;;6262292;22;20476;-81
2021/12/09 07:23:40;;;;;;;29.90;12.63;;;0.60;99.90;;;;;;6283384;22;20064;-82
2021/12/09 07:26:25;;;;;;;23.97;12.53;;;0.60;99.90;;;;;;6262111;22;20022;-83
2021/12/09 07:29:09;;;;;;;;;;;0.60;99.90;;;;;;6307234;22;20088;-82
2021/12/09 07:31:53;;;;;;;22.83;11.10;;;0.50;99.90;;;;;;6304784;22;20283;-83
2021/12/09 07:34:38;;;;;;;25.50;10.90;;;0.50;99.90;;;;;;6306119;22;20014;-82
2021/12/09 07:37:22;;;;;;;27.57;11.50;;;0.50;99.90;;;;;;6305658;22;20022;-82
2021/12/09 07:40:09;;;;;;;23.60;11.13;;;0.50;99.90;;;;;;6306665;22;20108;-82
2021/12/09 07:42:54;;;;;;;21.80;11.60;;;0.50;99.90;;;;;;6306226;22;20383;-82
2021/12/09 07:45:38;;;;;;;26.30;11.30;;;0.50;99.90;;;;;;6304750;22;20015;-83
2021/12/09 07:48:23;;;;;;;21.33;11.47;;;0.50;99.90;;;;;;6283575;22;20018;-82
2021/12/09 07:51:07;;;;;;;28.40;11.50;;;0.50;99.90;;;;;;6305513;22;20018;-83
2021/12/09 07:53:51;;;;;;;;;;;0.90;99.90;;;;;;6305359;22;20591;-82
2021/12/09 07:56:36;;;;;;;26.07;11.67;;;0.50;99.90;;;;;;6306173;22;19964;-82
2021/12/09 07:59:20;;;;;;;21.23;11.20;;;0.50;99.90;;;;;;6305444;22;20103;-82
2021/12/09 08:02:05;;;;;;;21.93;11.20;;;0.60;99.90;;;;;;6304988;22;20054;-83
2021/12/09 08:04:49;;;;;;;23.77;12.33;;;0.50;99.90;;;;;;6305665;22;20026;-82
2021/12/09 08:07:33;;;;;;;;;;;0.50;99.90;;;;;;6310860;22;20080;-82
2021/12/09 08:10:22;;;;;;;17.48;9.07;;;1.20;99.90;;;;;;6308937;22;20225;-83
2021/12/09 08:13:07;;;;;;;24.97;10.93;;;0.50;99.90;;;;;;6308922;22;20464;-83
2021/12/09 08:15:53;;;;;;;24.33;11.50;;;0.50;99.90;;;;;;6286945;22;20018;-84
2021/12/09 08:18:53;;;;;;;23.23;10.47;;;1.60;99.90;;;;;;6287140;22;20018;-84
2021/12/09 08:21:39;;;;;;;21.67;11.23;;;1.00;99.90;;;;;;6308613;22;20152;-84
2021/12/09 08:24:23;;;;;;;24.83;11.50;;;1.20;99.90;;;;;;6265545;22;20018;-82
2021/12/09 08:27:08;;;;;;;26.40;11.73;;;0.60;99.90;;;;;;6287271;22;20015;-83
2021/12/09 08:29:53;;;;;;;27.57;11.37;;;1.60;99.90;;;;;;6308235;22;20018;-82
2021/12/09 08:32:37;;;;;;;20.80;12.13;;;0.70;99.90;;;;;;6308849;22;20068;-83
2021/12/09 08:35:21;;;;;;;22.03;11.77;;;1.10;99.90;;;;;;6308686;22;20092;-82
2021/12/09 08:38:07;;;;;;;23.53;10.93;;;1.20;99.90;;;;;;6309800;22;20144;-83
2021/12/09 08:40:53;;;;;;;28.40;11.73;;;0.70;99.90;;;;;;6308209;22;20026;-83
2021/12/09 08:43:37;;;;;;;32.23;11.47;;;0.80;99.90;;;;;;6308469;22;20018;-83
2021/12/09 08:46:22;;;;;;;30.47;11.33;;;1.30;99.90;;;;;;6309857;22;20456;-82
2021/12/09 08:49:08;;;;;;;23.13;11.53;;;0.80;99.90;;;;;;6309354;22;20015;-83
2021/12/09 08:51:52;;;;;;;23.47;11.77;;;1.40;99.90;;;;;;6309371;22;20022;-83
2021/12/09 08:54:36;;;;;;;19.13;9.83;;;1.10;99.90;;;;;;6309976;22;20046;-83
2021/12/09 08:57:22;;;;;;;25.67;11.73;;;0.90;99.90;;;;;;6310063;22;20413;-83
2021/12/09 09:00:12;;;;;;;22.20;9.83;;;1.00;99.90;;;;;;6308328;22;20049;-83
2021/12/09 09:02:56;;;;;;;21.67;11.47;;;1.00;99.90;;;;;;6309466;22;20018;-82
2021/12/09 09:05:42;;;;;;;22.13;10.50;;;1.00;99.90;;;;;;6308694;22;20018;-82
2021/12/09 09:08:26;;;;;;;24.60;13.30;;;1.10;99.90;;;;;;6308733;22;20050;-83
2021/12/09 09:11:10;;;;;;;20.77;10.20;;;1.10;99.90;;;;;;6286897;22;20068;-83
2021/12/09 09:13:54;;;;;;;;;;;1.50;99.90;;;;;;6308639;22;20033;-83
2021/12/09 09:16:38;;;;;;;21.45;9.13;;;1.20;99.90;;;;;;6285518;22;19921;-83
2021/12/09 09:19:23;;;;;;;26.43;9.53;;;1.20;99.90;;;;;;6308397;22;20041;-83
2021/12/09 09:22:08;;;;;;;16.47;9.90;;;1.30;99.90;;;;;;6284379;22;20026;-83
2021/12/09 09:24:52;;;;;;;26.67;10.07;;;2.10;99.90;;;;;;6284769;22;20076;-83
2021/12/09 09:27:37;;;;;;;19.37;9.43;;;2.10;99.90;;;;;;6285222;22;20018;-83
2021/12/09 09:30:23;;;;;;;17.10;9.57;;;1.40;99.90;;;;;;6307030;22;20085;-82
2021/12/09 09:33:10;;;;;;;26.43;10.33;;;1.40;99.90;;;;;;6306971;22;20018;-83
2021/12/09 09:35:55;;;;;;;18.80;9.77;;;2.00;99.90;;;;;;6307050;22;20092;-83
2021/12/09 09:38:40;;;;;;;18.30;8.70;;;1.50;99.90;;;;;;6285048;22;20448;-83
2021/12/09 09:41:31;;;;;;;19.03;8.63;;;1.60;99.90;;;;;;6307850;22;20022;-83
2021/12/09 09:44:17;;;;;;;19.90;8.50;;;1.60;99.90;;;;;;6306191;22;20384;-83
2021/12/09 09:47:03;;;;;;;19.10;7.50;;;2.10;99.90;;;;;;6284977;22;20065;-82
2021/12/09 09:49:47;;;;;;;18.20;7.73;;;1.70;99.90;;;;;;6284767;22;20029;-82
2021/12/09 09:52:32;;;;;;;19.67;8.30;;;2.40;99.90;;;;;;6284782;22;20025;-83
2021/12/09 09:55:21;;;;;;;18.30;8.57;;;1.80;99.90;;;;;;6307320;22;20072;-83
2021/12/09 09:58:05;;;;;;;16.87;8.27;;;1.80;99.90;;;;;;6284870;22;20403;-83
2021/12/09 10:00:50;;;;;;;18.97;8.57;;;1.90;99.90;;;;;;6306479;22;20022;-83
2021/12/09 10:03:41;;;;;;;14.70;8.50;;;2.50;99.90;;;;;;6306577;22;20396;-83
2021/12/09 10:06:25;;;;;;;14.53;7.10;;;2.00;99.90;;;;;;6306537;22;20068;-83
2021/12/09 10:09:11;;;;;;;16.77;8.43;;;2.30;99.90;;;;;;6305983;22;20025;-83
2021/12/09 10:11:56;;;;;;;15.30;7.83;;;2.00;99.90;;;;;;6284432;22;20018;-85
2021/12/09 10:14:45;;;;;;;18.87;7.97;;;2.30;99.90;;;;;;6307977;22;20086;-83
2021/12/09 10:17:29;;;;;;;15.87;7.93;;;2.20;99.90;;;;;;6306221;22;20013;-83
2021/12/09 10:20:14;;;;;;;18.53;8.30;;;2.20;99.90;;;;;;6305545;22;20013;-82
2021/12/09 10:22:58;;;;;;;19.17;7.57;;;2.20;99.90;;;;;;6306005;22;20091;-85
2021/12/09 10:25:42;;;;;;;14.85;8.15;;;2.40;99.90;;;;;;6305870;22;20096;-84
2021/12/09 10:28:27;;;;;;;13.20;7.73;;;3.00;99.90;;;;;;6304394;22;20018;-83
2021/12/09 10:31:15;;;;;;;15.43;7.37;;;2.40;99.90;;;;;;6304018;22;20025;-83
2021/12/09 10:34:35;;;;;;;21.10;8.43;;;2.50;99.90;;;;;;6304114;22;20010;-84
2021/12/09 10:37:23;;;;;;;15.90;8.77;;;2.50;99.90;;;;;;6304788;22;20068;-83
2021/12/09 10:40:10;;;;;;;19.53;7.87;;;2.60;99.90;;;;;;6303650;22;20065;-83
2021/12/09 10:42:58;;;;;;;16.00;8.03;;;2.60;99.90;;;;;;6306688;22;20026;-82
2021/12/09 10:45:42;;;;;;;18.07;8.07;;;2.70;99.90;;;;;;6307205;22;20408;-83
2021/12/09 10:48:37;;;;;;;16.20;6.80;;;3.70;99.90;;;;;;6284065;22;20029;-83
2021/12/09 10:51:36;;;;;;;16.87;8.07;;;4.00;99.90;;;;;;6306742;22;20077;-83
2021/12/09 10:54:37;;;;;;;16.80;8.50;;;3.40;99.90;;;;;;6305633;22;20045;-82
2021/12/09 10:57:23;;;;;;;16.47;8.07;;;2.80;99.90;;;;;;6305174;22;20348;-83
2021/12/09 11:00:27;;;;;;;20.90;8.10;;;2.90;99.90;;;;;;6306740;22;20018;-83
2021/12/09 11:03:14;;;;;;;20.08;8.90;;;2.90;99.90;;;;;;6306773;22;20046;-82
2021/12/09 11:06:04;;;;;;;20.57;9.37;;;3.70;99.90;;;;;;6306009;22;20014;-82
2021/12/09 11:08:57;;;;;;;17.93;7.80;;;3.20;99.90;;;;;;6307240;22;20010;-83
2021/12/09 11:11:45;;;;;;;20.55;8.88;;;3.10;99.90;;;;;;6307165;22;20072;-83
2021/12/09 11:14:29;;;;;;;17.03;7.87;;;2.90;99.90;;;;;;6305365;22;20330;-82
2021/12/09 11:17:14;;;;;;;22.63;10.17;;;3.40;99.90;;;;;;6283535;22;20018;-82
2021/12/09 11:19:58;;;;;;;21.63;8.77;;;3.90;99.90;;;;;;6284165;22;20018;-83
2021/12/09 11:22:45;;;;;;;19.67;9.83;;;3.30;99.90;;;;;;6305958;22;20076;-83
2021/12/09 11:25:35;;;;;;;16.93;9.53;;;2.80;99.90;;;;;;6305376;22;20018;-82
2021/12/09 11:28:20;;;;;;;20.63;10.10;;;2.80;99.90;;;;;;6306537;22;20443;-82
2021/12/09 11:31:13;;;;;;;24.40;10.43;;;2.90;99.90;;;;;;6283941;22;20403;-82
2021/12/09 11:34:05;;;;;;;25.70;10.65;;;2.90;99.90;;;;;;6307088;22;20333;-82
2021/12/09 11:36:56;;;;;;;23.40;11.03;;;2.90;99.90;;;;;;6306908;22;20080;-82
2021/12/09 11:39:40;;;;;;;24.30;10.83;;;2.90;99.90;;;;;;6306566;22;20010;-82
2021/12/09 11:42:35;;;;;;;22.27;10.30;;;2.90;99.90;;;;;;6305108;22;20341;-82
2021/12/09 11:45:23;;;;;;;22.83;10.13;;;3.30;99.90;;;;;;6306440;22;20440;-82
2021/12/09 11:48:09;;;;;;;23.97;11.20;;;3.30;99.90;;;;;;6306972;22;20009;-82
2021/12/09 11:50:54;;;;;;;23.33;10.50;;;3.10;99.90;;;;;;6306893;22;20551;-82
2021/12/09 11:53:43;;;;;;;20.63;9.50;;;3.60;99.90;;;;;;6305656;22;20026;-82
2021/12/09 12:13:06;;;;;;;21.47;9.83;;;3.00;99.90;;;;;;6306252;22;20066;-82
2021/12/09 12:15:57;;;;;;;21.97;10.40;;;3.00;99.90;;;;;;6305567;22;20014;-82
2021/12/09 12:18:52;;;;;;;22.20;10.53;;;3.40;99.90;;;;;;6305532;22;20076;-82
2021/12/09 12:25:00;;;;;;;24.33;9.90;;;3.30;99.90;;;;;;6306180;22;20014;-82
2021/12/09 12:27:55;;;;;;;19.33;9.73;;;3.10;99.90;;;;;;6306679;22;20389;-82
2021/12/09 12:34:35;;;;;;;17.60;10.37;;;3.20;99.90;;;;;;6279639;22;20066;-81
2021/12/09 12:37:19;;;;;;;18.97;8.80;;;4.00;99.90;;;;;;6306584;22;20022;-82
2021/12/09 12:40:09;;;;;;;16.43;9.90;;;3.20;99.90;;;;;;6306696;22;20090;-82
2021/12/09 12:43:02;;;;;;;22.57;10.50;;;3.20;99.90;;;;;;6305467;22;20333;-82
2021/12/09 12:46:11;;;;;;;20.13;10.93;;;4.00;99.90;;;;;;6284526;22;20068;-83
2021/12/09 12:51:59;;;;;;;19.13;10.37;;;4.10;99.90;;;;;;6306196;22;20026;-83
2021/12/09 12:55:24;;;;;;;21.70;11.83;;;3.10;99.90;;;;;;6307034;22;20333;-82
2021/12/09 12:58:06;;;;;;;16.90;10.20;;;3.30;99.90;;;;;;6308668;22;20049;-82
2021/12/09 13:00:53;;;;;;;20.77;11.47;;;3.20;99.90;;;;;;6307379;22;20023;-82
2021/12/09 13:03:42;;;;;;;18.80;11.03;;;3.20;99.90;;;;;;6306617;22;20091;-83
2021/12/09 13:06:52;;;;;;;21.97;10.97;;;3.30;99.90;;;;;;6306595;22;20057;-83
2021/12/09 13:09:48;;;;;;;22.93;10.17;;;3.20;99.90;;;;;;6306592;22;20010;-83
2021/12/09 13:12:45;;;;;;;27.23;11.07;;;3.20;99.90;;;;;;6307837;22;20052;-82
2021/12/09 13:15:38;;;;;;;27.23;11.53;;;3.20;99.90;;;;;;6306550;22;20094;-82
2021/12/09 13:21:59;;;;;;;25.93;12.60;;;3.30;99.90;;;;;;6307884;22;20022;-82
2021/12/09 13:27:45;;;;;;;21.60;11.40;;;3.70;99.90;;;;;;6306461;22;20034;-83
2021/12/09 13:39:53;;;;;;;27.13;12.10;;;3.90;99.90;;;;;;6308360;22;20487;-82
2021/12/09 13:45:55;;;;;;;25.10;12.37;;;3.50;99.90;;;;;;6306563;22;20017;-83
2021/12/09 13:48:48;;;;;;;26.15;13.20;;;3.50;99.90;;;;;;6306490;22;20014;-83
2021/12/09 13:54:34;;;;;;;22.70;11.87;;;3.50;99.90;;;;;;6307507;22;20018;-83
2021/12/09 13:57:29;;;;;;;31.00;12.83;;;3.70;99.90;;;;;;6285030;22;20068;-82
2021/12/09 14:00:25;;;;;;;27.58;13.10;;;3.80;99.90;;;;;;6307954;22;20050;-82
2021/12/09 14:03:15;;;;;;;24.73;13.63;;;4.10;99.90;;;;;;6307759;22;20037;-82
2021/12/09 14:06:06;;;;;;;26.73;12.03;;;3.50;99.90;;;;;;6307830;22;20014;-82
2021/12/09 14:08:54;;;;;;;26.47;12.57;;;3.70;99.90;;;;;;6307317;22;20034;-82
2021/12/09 14:11:46;;;;;;;24.13;12.23;;;3.50;99.90;;;;;;6307153;22;20065;-83
2021/12/09 14:14:49;;;;;;;27.25;13.90;;;3.80;99.90;;;;;;6306047;22;20065;-83
2021/12/09 14:17:38;;;;;;;20.50;11.67;;;3.90;99.90;;;;;;6305760;22;20057;-82
2021/12/09 14:20:23;;;;;;;27.67;12.63;;;3.60;99.90;;;;;;6306552;22;20022;-82
2021/12/09 14:23:09;;;;;;;25.90;11.80;;;3.60;99.90;;;;;;6306436;22;20057;-82
2021/12/09 14:25:53;;;;;;;33.07;14.10;;;4.30;99.90;;;;;;6305876;22;20010;-82
2021/12/09 14:28:37;;;;;;;;;;;3.60;99.90;;;;;;6307628;22;20376;-83
2021/12/09 14:31:22;;;;;;;24.52;12.23;;;4.40;99.90;;;;;;6284426;22;19956;-82
2021/12/09 14:34:06;;;;;;;28.37;11.60;;;4.30;99.90;;;;;;6306203;22;20014;-82
2021/12/09 14:36:56;;;;;;;27.73;11.83;;;4.30;99.90;;;;;;6305648;22;20616;-82
2021/12/09 14:39:42;;;;;;;22.90;11.73;;;3.80;99.90;;;;;;6305699;22;20560;-83
2021/12/09 14:42:26;;;;;;;22.30;11.65;;;4.40;99.90;;;;;;6307310;22;20084;-83
2021/12/09 14:45:11;;;;;;;21.13;12.27;;;4.20;99.90;;;;;;6307487;22;20011;-82
2021/12/09 14:48:08;;;;;;;29.17;13.53;;;3.70;99.90;;;;;;6305586;22;20481;-82
2021/12/09 14:50:52;;;;;;;26.83;11.67;;;3.70;99.90;;;;;;6305560;22;20033;-82
2021/12/09 14:53:38;;;;;;;;;;;4.20;99.90;;;;;;6307444;22;20456;-83
2021/12/09 14:56:40;;;;;;;19.73;11.20;;;3.60;99.90;;;;;;6307118;22;19957;-82
2021/12/09 14:59:29;;;;;;;21.13;11.35;;;3.60;99.90;;;;;;6306228;22;20014;-82
2021/12/09 15:02:28;;;;;;;21.88;11.63;;;3.60;99.90;;;;;;6307335;22;20053;-82
2021/12/09 15:05:16;;;;;;;26.63;12.30;;;4.30;99.90;;;;;;6305920;22;20507;-83
2021/12/09 15:08:06;;;;;;;23.42;13.05;;;3.60;99.90;;;;;;6307217;22;20019;-82
2021/12/09 15:10:57;;;;;;;26.13;12.40;;;3.70;99.90;;;;;;6305456;22;20021;-82
2021/12/09 15:13:44;;;;;;;24.93;12.73;;;3.60;99.90;;;;;;6306585;22;20026;-82
2021/12/09 15:16:28;;;;;;;20.33;11.40;;;4.30;99.90;;;;;;6283838;22;20015;-82
2021/12/09 15:19:20;;;;;;;24.03;11.50;;;3.70;99.90;;;;;;6305919;22;20022;-82
2021/12/09 15:22:16;;;;;;;16.87;11.20;;;3.70;99.90;;;;;;6305748;22;20023;-82
2021/12/09 15:25:06;;;;;;;23.97;12.43;;;3.70;99.90;;;;;;6306538;22;20014;-82